createdAt,value
2022-08-26T00:02:02.140Z,62.48
2022-08-26T00:04:32.002Z,63.34
2022-08-26T00:06:59.442Z,63.55
2022-08-26T00:09:26.908Z,62.66
2022-08-26T00:11:54.691Z,63.82
2022-08-26T00:14:28.280Z,63.47
2022-08-26T00:16:58.694Z,62.68
2022-08-26T00:19:26.681Z,62.79
2022-08-26T00:21:54.494Z,63.96
2022-08-26T00:24:24.024Z,63.45
2022-08-26T00:26:51.749Z,63.68
2022-08-26T00:29:19.569Z,64.20
2022-08-26T00:31:49.327Z,63.79
2022-08-26T00:34:19.367Z,63.62
2022-08-26T00:36:49.381Z,63.93
2022-08-26T00:39:20.626Z,64.21
2022-08-26T00:41:48.350Z,64.20
2022-08-26T00:44:16.183Z,64.17
2022-08-26T00:46:48.151Z,64.47
2022-08-26T00:49:20.246Z,63.73
2022-08-26T00:51:50.638Z,63.78
2022-08-26T00:54:20.942Z,63.56
2022-08-26T00:56:56.226Z,63.67
2022-08-26T00:59:24.397Z,63.73
2022-08-26T01:01:52.890Z,65.31
2022-08-26T01:04:22.347Z,64.22
2022-08-26T01:06:52.296Z,64.31
2022-08-26T01:09:20.788Z,64.47
2022-08-26T01:11:51.482Z,63.78
2022-08-26T01:14:20.229Z,65.76
2022-08-26T01:16:48.854Z,66.39
2022-08-26T01:19:23.314Z,66.07
2022-08-26T01:22:11.317Z,65.71
2022-08-26T01:24:40.216Z,66.16
2022-08-26T01:27:09.387Z,64.84
2022-08-26T01:29:39.211Z,65.88
2022-08-26T01:32:09.904Z,65.54
2022-08-26T01:34:39.010Z,65.10
2022-08-26T01:37:15.544Z,64.78
2022-08-26T01:39:45.257Z,64.76
2022-08-26T01:42:14.667Z,64.35
2022-08-26T01:44:46.452Z,65.68
2022-08-26T01:47:17.187Z,66.58
2022-08-26T01:49:46.288Z,65.48
2022-08-26T01:52:17.305Z,65.39
2022-08-26T01:54:46.275Z,65.87
2022-08-26T01:57:18.898Z,65.02
2022-08-26T01:59:48.216Z,64.42
2022-08-26T02:02:15.790Z,64.28
2022-08-26T02:04:50.166Z,64.22
2022-08-26T02:07:19.984Z,64.40
2022-08-26T02:09:49.562Z,64.46
2022-08-26T02:12:18.579Z,64.89
2022-08-26T02:14:58.620Z,64.73
2022-08-26T02:17:30.156Z,65.67
2022-08-26T02:19:58.069Z,65.91
2022-08-26T02:22:26.401Z,65.59
2022-08-26T02:24:56.631Z,64.74
2022-08-26T02:27:28.156Z,64.98
2022-08-26T02:30:09.305Z,65.34
2022-08-26T02:32:40.201Z,65.54
2022-08-26T02:35:10.825Z,65.70
2022-08-26T02:37:38.548Z,65.84
2022-08-26T02:40:11.908Z,66.36
2022-08-26T02:42:39.475Z,65.97
2022-08-26T02:45:08.288Z,65.90
2022-08-26T02:47:36.918Z,65.97
2022-08-26T02:50:05.507Z,66.41
2022-08-26T02:52:33.005Z,65.85
2022-08-26T02:55:01.853Z,65.37
2022-08-26T02:57:31.138Z,66.21
2022-08-26T03:00:00.721Z,66.83
2022-08-26T03:02:29.752Z,66.84
2022-08-26T03:05:02.023Z,65.81
2022-08-26T03:07:31.164Z,65.57
2022-08-26T03:09:58.911Z,66.75
2022-08-26T03:12:26.535Z,67.22
2022-08-26T03:14:54.230Z,67.75
2022-08-26T03:17:21.790Z,66.37
2022-08-26T03:19:54.268Z,67.28
2022-08-26T03:22:26.171Z,66.65
2022-08-26T03:24:54.927Z,67.18
2022-08-26T03:27:22.372Z,66.24
2022-08-26T03:30:08.719Z,65.89
2022-08-26T03:32:39.356Z,66.11
2022-08-26T03:35:10.116Z,65.47
2022-08-26T03:37:38.593Z,67.90
2022-08-26T03:40:10.462Z,68.30
2022-08-26T03:42:40.046Z,67.08
2022-08-26T03:45:10.534Z,67.24
2022-08-26T03:47:39.758Z,68.09
2022-08-26T03:50:09.263Z,67.60
2022-08-26T03:52:40.695Z,66.45
2022-08-26T03:55:12.014Z,66.35
2022-08-26T03:57:39.607Z,66.73
2022-08-26T04:00:09.126Z,66.67
2022-08-26T04:02:36.494Z,68.03
2022-08-26T04:05:04.870Z,67.30
2022-08-26T04:07:32.310Z,66.56
2022-08-26T04:10:00.651Z,65.93
2022-08-26T04:12:28.468Z,66.95
2022-08-26T04:14:57.055Z,66.27
2022-08-26T04:17:26.263Z,66.17
2022-08-26T04:19:54.199Z,66.83
2022-08-26T04:22:24.140Z,66.02
2022-08-26T04:24:52.825Z,65.83
2022-08-26T04:27:21.099Z,65.35
2022-08-26T04:29:51.414Z,65.18
2022-08-26T04:32:22.670Z,65.86
2022-08-26T04:34:50.253Z,66.47
2022-08-26T04:37:18.641Z,67.14
2022-08-26T04:39:51.317Z,68.64
2022-08-26T04:42:22.717Z,67.36
2022-08-26T04:44:53.842Z,66.80
2022-08-26T04:47:21.536Z,67.61
2022-08-26T04:49:49.026Z,67.51
2022-08-26T04:52:18.326Z,67.31
2022-08-26T04:54:45.958Z,67.26
2022-08-26T04:57:13.693Z,66.83
2022-08-26T04:59:41.486Z,66.86
2022-08-26T05:02:09.146Z,67.43
2022-08-26T05:04:36.703Z,66.42
2022-08-26T05:07:05.969Z,67.20
2022-08-26T05:09:34.760Z,66.88
2022-08-26T05:12:02.349Z,67.12
2022-08-26T05:14:31.240Z,67.14
2022-08-26T05:16:58.792Z,66.51
2022-08-26T05:19:27.932Z,66.60
2022-08-26T05:21:55.809Z,67.10
2022-08-26T05:24:23.555Z,66.29
2022-08-26T05:26:51.439Z,66.31
2022-08-26T05:29:19.913Z,65.75
2022-08-26T05:31:51.657Z,65.69
2022-08-26T05:34:20.955Z,66.18
2022-08-26T05:36:49.247Z,66.34
2022-08-26T05:39:17.123Z,66.09
2022-08-26T05:41:45.390Z,65.57
2022-08-26T05:44:15.883Z,65.59
2022-08-26T05:46:44.847Z,65.41
2022-08-26T05:49:14.549Z,65.07
2022-08-26T05:51:46.400Z,65.13
2022-08-26T05:54:22.270Z,64.91
2022-08-26T05:56:51.539Z,64.65
2022-08-26T05:59:24.022Z,64.30
2022-08-26T06:01:53.089Z,64.17
2022-08-26T06:04:20.980Z,63.18
2022-08-26T06:06:48.575Z,63.17
2022-08-26T06:09:18.260Z,63.32
2022-08-26T06:11:46.407Z,62.95
2022-08-26T06:14:13.972Z,62.48
2022-08-26T06:16:45.222Z,61.60
2022-08-26T06:19:15.787Z,59.60
2022-08-26T06:21:46.699Z,58.71
2022-08-26T06:24:33.911Z,58.80
2022-08-26T06:27:05.022Z,58.23
2022-08-26T06:29:34.356Z,58.13
2022-08-26T06:32:04.445Z,56.78
2022-08-26T06:34:32.812Z,56.42
2022-08-26T06:37:06.406Z,56.51
2022-08-26T06:39:34.232Z,55.85
2022-08-26T06:42:03.036Z,55.14
2022-08-26T06:44:34.620Z,54.94
2022-08-26T06:47:02.440Z,55.39
2022-08-26T06:49:29.971Z,55.04
2022-08-26T06:51:58.571Z,55.04
2022-08-26T06:54:27.988Z,53.48
2022-08-26T06:56:57.190Z,54.24
2022-08-26T06:59:25.521Z,54.29
2022-08-26T07:01:54.751Z,54.33
2022-08-26T07:04:24.577Z,54.13
2022-08-26T07:06:53.516Z,54.21
2022-08-26T07:09:23.521Z,52.61
2022-08-26T07:11:51.991Z,50.19
2022-08-26T07:14:21.400Z,48.50
2022-08-26T07:16:50.797Z,48.77
2022-08-26T07:19:29.778Z,46.88
2022-08-26T07:22:03.389Z,46.55
2022-08-26T07:24:33.162Z,46.84
2022-08-26T07:27:05.597Z,46.11
2022-08-26T07:29:34.192Z,46.19
2022-08-26T07:32:02.203Z,44.83
2022-08-26T07:34:33.164Z,44.92
2022-08-26T07:37:01.616Z,45.74
2022-08-26T07:39:31.451Z,46.16
2022-08-26T07:42:01.395Z,45.14
2022-08-26T07:44:31.728Z,45.09
2022-08-26T07:46:59.564Z,44.89
2022-08-26T07:49:27.292Z,45.33
2022-08-26T07:51:56.138Z,44.77
2022-08-26T07:54:26.658Z,45.05
2022-08-26T07:56:54.838Z,45.30
2022-08-26T07:59:24.539Z,44.20
2022-08-26T08:01:52.312Z,45.78
2022-08-26T08:04:26.184Z,44.39
2022-08-26T08:06:55.100Z,45.38
2022-08-26T08:09:23.341Z,45.54
2022-08-26T08:11:52.941Z,44.67
2022-08-26T08:14:22.277Z,44.38
2022-08-26T08:16:54.672Z,43.85
2022-08-26T08:19:23.942Z,44.98
2022-08-26T08:21:57.975Z,45.26
2022-08-26T08:24:26.927Z,44.96
2022-08-26T08:26:54.423Z,44.91
2022-08-26T08:29:23.984Z,44.76
2022-08-26T08:31:56.940Z,43.85
2022-08-26T08:34:28.096Z,43.87
2022-08-26T08:36:57.206Z,43.74
2022-08-26T08:39:25.653Z,43.78
2022-08-26T08:42:34.184Z,44.17
2022-08-26T08:45:08.817Z,44.35
2022-08-26T08:47:50.329Z,43.92
2022-08-26T08:50:24.316Z,43.91
2022-08-26T08:53:11.764Z,43.87
2022-08-26T08:55:43.417Z,43.08
2022-08-26T08:58:20.655Z,43.18
2022-08-26T09:00:54.775Z,42.90
2022-08-26T09:03:42.702Z,42.96
2022-08-26T09:06:17.319Z,43.24
2022-08-26T09:08:47.337Z,43.66
2022-08-26T09:11:19.336Z,43.88
2022-08-26T09:13:52.421Z,42.72
2022-08-26T09:16:38.681Z,43.30
2022-08-26T09:19:31.002Z,43.47
2022-08-26T09:22:00.504Z,42.34
2022-08-26T09:24:31.219Z,41.94
2022-08-26T09:26:59.327Z,42.48
2022-08-26T09:29:40.052Z,44.00
2022-08-26T09:32:25.629Z,42.19
2022-08-26T09:34:58.456Z,41.92
2022-08-26T09:37:39.658Z,42.45
2022-08-26T09:40:29.987Z,42.38
2022-08-26T09:43:08.844Z,41.91
2022-08-26T09:45:37.390Z,41.33
2022-08-26T09:48:06.742Z,41.46
2022-08-26T09:50:36.195Z,40.70
2022-08-26T09:53:14.019Z,39.36
2022-08-26T09:55:50.244Z,39.47
2022-08-26T09:58:37.912Z,40.61
2022-08-26T10:01:08.274Z,38.80
2022-08-26T10:03:38.427Z,40.08
2022-08-26T10:06:20.983Z,39.14
2022-08-26T10:08:56.204Z,39.44
2022-08-26T10:11:43.118Z,39.67
2022-08-26T10:14:18.204Z,39.65
2022-08-26T10:16:58.562Z,39.26
2022-08-26T10:19:55.783Z,39.17
2022-08-26T10:22:49.224Z,38.63
2022-08-26T10:25:26.086Z,37.79
2022-08-26T10:28:32.646Z,37.98
2022-08-26T10:31:05.319Z,37.67
2022-08-26T10:33:33.351Z,38.73
2022-08-26T10:36:06.303Z,36.65
2022-08-26T10:38:39.257Z,37.20
2022-08-26T10:41:13.052Z,36.37
2022-08-26T10:43:46.863Z,36.74
2022-08-26T10:46:20.603Z,34.75
2022-08-26T10:48:57.298Z,34.51
2022-08-26T10:51:35.659Z,36.23
2022-08-26T10:54:11.885Z,35.46
2022-08-26T10:56:58.556Z,35.49
2022-08-26T10:59:45.385Z,34.47
2022-08-26T11:02:36.343Z,33.86
2022-08-26T11:05:18.407Z,32.46
2022-08-26T11:07:51.762Z,32.08
2022-08-26T11:10:42.920Z,32.73
2022-08-26T11:13:12.261Z,33.39
2022-08-26T11:15:39.975Z,33.04
2022-08-26T11:18:37.986Z,32.97
2022-08-26T11:21:44.471Z,32.36
2022-08-26T11:24:46.728Z,32.28
2022-08-26T11:27:24.438Z,31.23
2022-08-26T11:30:02.290Z,30.76
2022-08-26T11:32:39.464Z,31.63
2022-08-26T11:35:19.622Z,32.50
2022-08-26T11:37:48.862Z,31.25
2022-08-26T11:40:31.494Z,33.97
2022-08-26T11:43:03.134Z,31.82
2022-08-26T11:45:37.804Z,29.96
2022-08-26T11:48:30.697Z,31.43
2022-08-26T11:51:02.447Z,29.01
2022-08-26T11:53:33.504Z,30.97
2022-08-26T11:56:06.217Z,29.11
2022-08-26T11:58:35.314Z,30.30
2022-08-26T12:01:09.800Z,30.56
2022-08-26T12:03:50.763Z,29.52
2022-08-26T12:06:37.433Z,29.12
2022-08-26T12:09:55.209Z,27.91
2022-08-26T12:12:34.527Z,28.36
2022-08-26T12:15:16.271Z,28.30
2022-08-26T12:17:51.731Z,29.77
2022-08-26T12:20:48.638Z,28.91
2022-08-26T12:23:35.193Z,29.00
2022-08-26T12:26:04.227Z,28.95
2022-08-26T12:28:31.941Z,29.28
2022-08-26T12:31:06.267Z,27.70
2022-08-26T12:33:38.433Z,26.18
2022-08-26T12:36:06.378Z,27.99
2022-08-26T12:38:35.760Z,28.29
2022-08-26T12:41:03.515Z,25.01
2022-08-26T12:43:49.229Z,26.04
2022-08-26T12:46:18.110Z,27.73
2022-08-26T12:48:49.892Z,27.26
2022-08-26T12:51:29.832Z,29.01
2022-08-26T12:53:57.869Z,29.76
2022-08-26T12:56:34.731Z,28.25
2022-08-26T12:59:20.657Z,28.68
2022-08-26T13:01:49.549Z,28.59
2022-08-26T13:04:40.159Z,27.75
2022-08-26T13:07:20.959Z,26.76
2022-08-26T13:09:50.568Z,27.23
2022-08-26T13:12:30.308Z,26.01
2022-08-26T13:14:59.146Z,26.24
2022-08-26T13:17:30.115Z,24.68
2022-08-26T13:20:03.459Z,24.93
2022-08-26T13:22:32.904Z,24.44
2022-08-26T13:25:00.526Z,24.01
2022-08-26T13:27:28.242Z,25.85
2022-08-26T13:29:57.936Z,25.24
2022-08-26T13:32:27.495Z,25.49
2022-08-26T13:34:56.762Z,24.80
2022-08-26T13:37:35.165Z,25.52
2022-08-26T13:40:07.696Z,24.84
2022-08-26T13:42:35.712Z,25.44
2022-08-26T13:45:04.960Z,24.65
2022-08-26T13:47:33.887Z,25.02
2022-08-26T13:50:01.924Z,25.13
2022-08-26T13:52:33.022Z,25.69
2022-08-26T13:55:00.886Z,25.63
2022-08-26T13:57:33.453Z,25.67
2022-08-26T14:00:01.222Z,26.28
2022-08-26T14:02:28.813Z,25.98
2022-08-26T14:04:56.600Z,25.78
2022-08-26T14:07:24.436Z,24.58
2022-08-26T14:09:51.917Z,25.13
2022-08-26T14:12:19.703Z,24.39
2022-08-26T14:14:47.505Z,23.97
2022-08-26T14:17:18.627Z,25.05
2022-08-26T14:19:47.388Z,26.71
2022-08-26T14:22:17.801Z,24.80
2022-08-26T14:24:48.540Z,25.40
2022-08-26T14:27:16.692Z,25.61
2022-08-26T14:29:44.172Z,24.46
2022-08-26T14:32:24.351Z,25.24
2022-08-26T14:34:52.224Z,24.14
2022-08-26T14:37:20.541Z,25.22
2022-08-26T14:39:48.102Z,24.48
2022-08-26T14:42:20.532Z,26.12
2022-08-26T14:44:53.111Z,25.57
2022-08-26T14:47:21.154Z,26.60
2022-08-26T14:49:48.790Z,28.93
2022-08-26T14:52:17.328Z,29.58
2022-08-26T14:54:45.545Z,29.83
2022-08-26T14:57:13.800Z,29.67
2022-08-26T14:59:49.697Z,29.47
2022-08-26T15:02:27.804Z,26.73
2022-08-26T15:05:02.671Z,27.88
2022-08-26T15:07:30.925Z,26.41
2022-08-26T15:09:58.643Z,28.71
2022-08-26T15:12:26.678Z,29.03
2022-08-26T15:14:54.922Z,29.53
2022-08-26T15:17:22.444Z,25.45
2022-08-26T15:19:50.235Z,25.95
2022-08-26T15:22:18.274Z,25.78
2022-08-26T15:24:45.766Z,29.84
2022-08-26T15:27:13.231Z,25.45
2022-08-26T15:29:41.595Z,26.08
2022-08-26T15:32:09.855Z,25.87
2022-08-26T15:34:37.589Z,26.37
2022-08-26T15:37:06.265Z,27.06
2022-08-26T15:39:34.471Z,26.28
2022-08-26T15:42:02.255Z,25.99
2022-08-26T15:44:29.988Z,26.71
2022-08-26T15:46:58.761Z,27.45
2022-08-26T15:49:27.748Z,27.42
2022-08-26T15:51:55.751Z,26.26
2022-08-26T15:54:23.785Z,26.46
2022-08-26T15:56:53.120Z,26.59
2022-08-26T15:59:22.203Z,26.82
2022-08-26T16:01:50.858Z,27.03
2022-08-26T16:04:18.977Z,28.04
2022-08-26T16:06:50.094Z,28.57
2022-08-26T16:09:19.040Z,28.46
2022-08-26T16:11:47.028Z,27.65
2022-08-26T16:14:15.928Z,28.96
2022-08-26T16:16:43.578Z,29.67
2022-08-26T16:19:13.345Z,30.75
2022-08-26T16:21:41.531Z,32.51
2022-08-26T16:24:09.490Z,32.73
2022-08-26T16:26:39.037Z,32.79
2022-08-26T16:29:09.020Z,33.07
2022-08-26T16:31:38.331Z,33.16
2022-08-26T16:34:09.224Z,33.19
2022-08-26T16:36:38.482Z,34.56
2022-08-26T16:39:07.934Z,35.28
2022-08-26T16:41:35.817Z,35.49
2022-08-26T16:44:04.368Z,35.55
2022-08-26T16:46:32.372Z,36.12
2022-08-26T16:49:01.624Z,36.17
2022-08-26T16:51:29.764Z,37.23
2022-08-26T16:54:02.787Z,37.45
2022-08-26T16:56:34.001Z,37.80
2022-08-26T16:59:07.463Z,37.79
2022-08-26T17:01:35.561Z,37.11
2022-08-26T17:04:10.000Z,37.38
2022-08-26T17:06:38.732Z,38.10
2022-08-26T17:09:06.802Z,38.49
2022-08-26T17:11:38.347Z,38.45
2022-08-26T17:14:13.554Z,38.74
2022-08-26T17:16:41.133Z,39.45
2022-08-26T17:19:09.111Z,39.83
2022-08-26T17:21:38.989Z,39.42
2022-08-26T17:24:06.932Z,39.96
2022-08-26T17:26:35.009Z,41.13
2022-08-26T17:29:02.438Z,41.74
2022-08-26T17:31:30.122Z,40.74
2022-08-26T17:33:58.163Z,41.81
2022-08-26T17:36:28.462Z,41.76
2022-08-26T17:38:57.542Z,40.99
2022-08-26T17:41:26.172Z,40.71
2022-08-26T17:43:53.691Z,41.60
2022-08-26T17:46:21.336Z,42.30
2022-08-26T17:48:49.249Z,41.63
2022-08-26T17:51:19.269Z,42.99
2022-08-26T17:53:48.085Z,42.82
2022-08-26T17:56:19.527Z,42.67
2022-08-26T17:58:51.377Z,42.49
2022-08-26T18:01:23.636Z,43.02
2022-08-26T18:04:06.062Z,43.26
2022-08-26T18:06:37.034Z,44.02
2022-08-26T18:09:08.929Z,43.86
2022-08-26T18:11:38.844Z,44.09
2022-08-26T18:14:06.825Z,44.76
2022-08-26T18:16:38.379Z,44.69
2022-08-26T18:19:06.390Z,45.16
2022-08-26T18:21:34.419Z,45.39
2022-08-26T18:24:01.857Z,44.69
2022-08-26T18:26:30.408Z,45.99
2022-08-26T18:28:58.220Z,47.14
2022-08-26T18:31:26.042Z,45.77
2022-08-26T18:33:53.425Z,46.01
2022-08-26T18:36:25.777Z,46.20
2022-08-26T18:38:54.258Z,46.05
2022-08-26T18:41:23.194Z,46.94
2022-08-26T18:43:50.954Z,46.71
2022-08-26T18:46:18.633Z,47.11
2022-08-26T18:48:50.903Z,46.99
2022-08-26T18:51:19.613Z,47.11
2022-08-26T18:53:47.850Z,47.00
2022-08-26T18:56:18.583Z,46.96
2022-08-26T18:58:47.259Z,48.23
2022-08-26T19:01:15.340Z,47.11
2022-08-26T19:03:43.171Z,47.50
2022-08-26T19:06:15.482Z,47.79
2022-08-26T19:08:44.760Z,47.98
2022-08-26T19:11:13.857Z,48.09
2022-08-26T19:13:45.101Z,47.91
2022-08-26T19:16:23.350Z,47.41
2022-08-26T19:18:54.745Z,47.54
2022-08-26T19:21:24.375Z,48.37
2022-08-26T19:23:52.462Z,50.20
2022-08-26T19:26:20.524Z,49.52
2022-08-26T19:28:49.878Z,50.55
2022-08-26T19:31:17.533Z,49.64
2022-08-26T19:33:45.951Z,51.01
2022-08-26T19:36:18.618Z,50.49
2022-08-26T19:38:48.094Z,50.00
2022-08-26T19:41:18.486Z,50.82
2022-08-26T19:43:46.291Z,52.17
2022-08-26T19:46:23.509Z,50.46
2022-08-26T19:48:54.119Z,50.69
2022-08-26T19:51:28.405Z,49.96
2022-08-26T19:53:57.218Z,51.08
2022-08-26T19:56:28.478Z,50.46
2022-08-26T19:58:57.141Z,50.76
2022-08-26T20:01:28.650Z,51.58
2022-08-26T20:03:57.674Z,51.77
2022-08-26T20:06:25.402Z,51.01
2022-08-26T20:08:55.010Z,51.59
2022-08-26T20:11:24.953Z,50.63
2022-08-26T20:13:52.771Z,50.95
2022-08-26T20:16:20.314Z,51.26
2022-08-26T20:19:07.244Z,51.25
2022-08-26T20:21:41.164Z,53.78
2022-08-26T20:24:12.091Z,52.34
2022-08-26T20:27:17.645Z,51.19
2022-08-26T20:29:38.734Z,51.84
2022-08-26T20:32:07.588Z,51.38
2022-08-26T20:34:43.021Z,51.83
2022-08-26T20:37:24.120Z,52.26
2022-08-26T20:40:15.361Z,51.67
2022-08-26T20:42:47.974Z,51.90
2022-08-26T20:45:46.573Z,52.25
2022-08-26T20:48:33.981Z,52.50
2022-08-26T20:51:02.420Z,52.28
2022-08-26T20:53:32.652Z,52.04
2022-08-26T20:56:01.215Z,51.86
2022-08-26T20:58:38.538Z,51.97
2022-08-26T21:04:01.127Z,52.13
2022-08-26T21:06:52.769Z,51.90
2022-08-26T21:09:27.016Z,51.56
2022-08-26T21:11:56.413Z,51.52
2022-08-26T21:14:39.184Z,52.52
2022-08-26T21:17:12.878Z,52.52
2022-08-26T21:20:12.324Z,52.96
2022-08-26T21:22:45.233Z,52.43
2022-08-26T21:25:14.821Z,52.66
2022-08-26T21:27:42.407Z,52.36
2022-08-26T21:30:10.319Z,52.35
2022-08-26T21:32:38.204Z,51.71
2022-08-26T21:35:05.966Z,51.66
2022-08-26T21:37:34.557Z,51.50
2022-08-26T21:40:04.217Z,51.29
2022-08-26T21:42:33.106Z,52.03
2022-08-26T21:45:03.399Z,52.25
2022-08-26T21:47:33.103Z,52.71
2022-08-26T21:50:00.839Z,53.02
2022-08-26T21:52:28.503Z,52.96
2022-08-26T21:54:57.444Z,52.29
2022-08-26T21:57:24.916Z,52.13
2022-08-26T21:59:54.004Z,52.18
2022-08-26T22:02:22.771Z,51.91
2022-08-26T22:04:51.248Z,51.58
2022-08-26T22:07:24.950Z,51.39
2022-08-26T22:10:03.004Z,52.50
2022-08-26T22:12:31.965Z,51.86
2022-08-26T22:15:03.538Z,51.97
2022-08-26T22:17:31.225Z,52.92
2022-08-26T22:19:58.870Z,52.70
2022-08-26T22:22:28.734Z,53.30
2022-08-26T22:24:56.155Z,53.59
2022-08-26T22:27:23.712Z,53.28
2022-08-26T22:29:51.661Z,52.81
2022-08-26T22:32:19.224Z,52.38
2022-08-26T22:34:46.975Z,51.05
2022-08-26T22:37:14.978Z,52.00
2022-08-26T22:39:42.527Z,53.42
2022-08-26T22:42:10.666Z,52.69
2022-08-26T22:44:38.477Z,52.77
2022-08-26T22:47:06.700Z,52.60
2022-08-26T22:49:34.200Z,52.06
2022-08-26T22:52:02.070Z,51.91
2022-08-26T22:54:29.665Z,51.60
2022-08-26T22:56:57.144Z,51.92
2022-08-26T22:59:24.875Z,53.18
2022-08-26T23:01:52.619Z,53.01
2022-08-26T23:04:20.167Z,52.90
2022-08-26T23:06:48.153Z,52.11
2022-08-26T23:09:18.244Z,51.57
2022-08-26T23:11:46.474Z,51.61
2022-08-26T23:14:14.522Z,51.24
2022-08-26T23:16:41.976Z,52.38
2022-08-26T23:19:09.990Z,52.25
2022-08-26T23:21:37.892Z,52.81
2022-08-26T23:24:06.031Z,53.97
2022-08-26T23:26:33.710Z,54.19
2022-08-26T23:29:01.521Z,52.65
2022-08-26T23:31:28.962Z,52.01
2022-08-26T23:34:14.941Z,51.90
2022-08-26T23:36:43.379Z,51.93
2022-08-26T23:39:14.228Z,51.77
2022-08-26T23:41:41.732Z,51.69
2022-08-26T23:44:09.432Z,51.65
2022-08-26T23:46:36.948Z,51.58
2022-08-26T23:49:06.075Z,52.68
2022-08-26T23:51:52.642Z,52.40
2022-08-26T23:54:19.960Z,52.64
2022-08-26T23:56:47.712Z,53.03
2022-08-26T23:59:15.638Z,53.02
